Dobrodošli na spletni strani vremenske postaje Senovo. Vse informacije so informativnega značaja, saj vremenska postaja ni del državne mreže meteoroloških postaj. OBVESTILO: Letni količini padavin navedeni na spletni strani je potrebno prišteti 98,1 mm, zaradi izgube podatkov.


Posebna pozornost v zvezi z vremenskimi dogajanji ni potrebna.    Posebna pozornost v zvezi z vremenskimi dogajanji ni potrebna.

Pogled proti Armezu več informacij Pogled proti Armezu


Lisca več informacij Lisca


Radar strel več informacij blitzortung!


Radar padavin več informacij rain snow radar


Obiščite še:

Template documentation
and downloads

And another site



METAR v bližini

   
LJLJ - Ljubljana
Posodobljeno: 18-11-2017 16:30
delno oblačno  
delno oblačno  
   Veter: SZ 11.1 km/h
Veter: SZ 11.1 km/h
Temperatura: 4°C
Občutek mraza: 1°C
Točka rosišča: 2°C
Vlažnost: 87%
Zračni tlak: 1018 hPa
Oblaki: delno oblačno
Vidljivost: More than 10 km
Podrobnosti o oblakih: delno oblačno 670.6 m
LJLJ 181530Z 32006KT 9999 SCT022 04/02 Q1018 NOSIG
LJCE - Cerklje ob Krki
Posodobljeno: 18-11-2017 16:30
jasno  
jasno  
   Veter: Zahod 1.9 km/h
Veter: Zahod 1.9 km/h
Temperatura: 6°C
Točka rosišča: 4°C
Vlažnost: 87%
Zračni tlak: 1018 hPa
Oblaki: jasno
Vidljivost: More than 10 km
Podrobnosti o oblakih: jasno
LJCE 181530Z AUTO 27001KT 9999 NCD 06/04 Q1018
LJMB - Maribor
Posodobljeno: 18-11-2017 16:30
jasno  
jasno  
   Veter: JJV 9.3 km/h
Veter: JJV 9.3 km/h
Temperatura: 6°C
Občutek mraza: 4°C
Točka rosišča: 3°C
Vlažnost: 81%
Zračni tlak: 1018 hPa
Vidljivost: More than 10 km
Podrobnosti o oblakih: jasno
LJMB 181530Z 16005KT CAVOK 06/03 Q1018
LJPZ - Portorož
Posodobljeno: 18-11-2017 16:30
jasno  
jasno  
   Veter: Vzhod 11.1 km/h
Veter: Vzhod 11.1 km/h
Temperatura: 12°C
Točka rosišča: 2°C
Vlažnost: 51%
Zračni tlak: 1016 hPa
Vidljivost: More than 10 km
Podrobnosti o oblakih: jasno
LJPZ 181530Z 08006KT 040V120 CAVOK 12/02 Q1016
LDRI - Rijeka, Airport, Croatia
Posodobljeno: 18-11-2017 16:30
jasno  
jasno  
   Veter: VSV 14.8 km/h
Veter: VSV 14.8 km/h
Temperatura: 11°C
Točka rosišča: 0°C
Vlažnost: 47%
Zračni tlak: 1016 hPa
Vidljivost: More than 10 km
Podrobnosti o oblakih: jasno
LDRI 181530Z 07008KT CAVOK 11/00 Q1016
LOWK - Klagenfurt, Airport, Avstia
Posodobljeno: 18-11-2017 16:50
delno oblačno  
delno oblačno  
   Veter: VSV 5.6 km/h
Veter: VSV 5.6 km/h
Temperatura: 4°C
Občutek mraza: 3°C
Točka rosišča: 2°C
Vlažnost: 87%
Zračni tlak: 1017 hPa
Oblaki: delno oblačno
Vidljivost: More than 10 km
Podrobnosti o oblakih: delno oblačno 487.7 m
LOWK 181550Z 06003KT 040V100 9999 SCT016 04/02 Q1017 R10L/19//95 BECMG BKN014

Script developed by  Saratoga-weather.org Adapted for the template by  Weerstation Leuven

Vremenski podatki so objavljeni na:

WeatherCloud

Weather Underground

AWEKAS

HAMweather, WeatherForYou, PWS Weather

MapView

Geostik

Slovenia weather network

Oprema, ki se uporablja:

Vremenski program
Cumulus

Cumulus